TAF and METAR

Could not understand the following METAR

FABL 192100Z AUTO 21002KT //// // ////// 20/01 Q1018

TAF for Bloemfontein Airport

TAF FABL 191600Z 1918/2018 27008KT CAVOK TX36/2012Z TN15/2004Z BECMG 1920/1922 VRB03KT BECMG 2008/2010 27010KT
Report created 19. okt 18:00

between 19. okt 20:00 - 20. okt 20:00

wind 8 knots from W (270°) Clear sky Max temperature 36° expected tomorrow at around 14 o'clock Min temperature 15° expected tomorrow at around 06 o'clock

becoming between 19. okt 22:00 - 20. okt 00:00

wind 3 knots from various directions

becoming between 20. okt 10:00 - 20. okt 12:00

wind 10 knots from W (270°)
Bloemfontein Airport in South Africa at 1348m

Latest 5 airports